ADDS METAR Data INFO
IDs: Format: Raw Decoded Include TAF

Data at: 0048 UTC 22 Oct 2017

KSCF 220035Z AUTO 13014KT 9SM FEW018 FEW023 FEW055 27/25 A3000 RMK A01
KSCF 220015Z AUTO 13014KT 8SM CLR 27/25 A3000 RMK A01
KSCF 212355Z AUTO 13016KT 8SM FEW017 FEW055 27/25 A2999 RMK A01
KSCF 212335Z AUTO 13015KT 7SM FEW016 SCT065 27/25 A2999 RMK A01
KSCF 212310Z AUTO 13015KT 7SM SCT065 27/25 A2998 RMK A01
KSCF 212255Z AUTO 13014KT 8SM CLR 27/25 A2998 RMK A01
KSCF 212235Z AUTO 13016KT 9SM CLR 27/25 A2998 RMK A01
KSCF 212215Z AUTO 13015KT 9SM FEW021 27/25 A2999 RMK A01
KSCF 212155Z AUTO 13016KT 9SM FEW021 27/25 A2999 RMK A01
KSCF 212135Z AUTO 13015KT 8SM CLR 27/25 A2998 RMK A01
KSCF 212115Z AUTO 13013KT 8SM CLR 27/25 A2998 RMK A01
KSCF 212055Z AUTO 12010KT 6SM BR FEW060 26/24 A2998 RMK A01
KSCF 212035Z AUTO 12012KT 9SM CLR 26/24 A2999 RMK A01
KSCF 212015Z AUTO 13018KT 6SM BR FEW022 FEW030 SCT042 26/24 A2998 RMK A01
KSCF 211955Z AUTO 12018G34KT 1/2SM FG SCT003 BKN025 OVC040 25/23 A2999 RMK A01 VIS M1/4V5
KSCF 211935Z AUTO 11013KT 6SM BR FEW024 FEW029 SCT034 26/25 A2999 RMK A01
KSCF 211915Z AUTO 11012KT 5SM BR FEW025 26/25 A2999 RMK A01
KSCF 211855Z AUTO 12013KT 7SM CLR 27/25 A3001 RMK A01
KSCF 211835Z AUTO 12014KT 6SM BR CLR 27/25 A3001 RMK A01
KSCF 211815Z AUTO 13013KT 7SM CLR 27/25 A3002 RMK A01
KSCF 211755Z AUTO 13014KT 7SM CLR 27/25 A3003 RMK A01
KSCF 211735Z AUTO 13013KT 7SM CLR 27/24 A3003 RMK A01
KSCF 211715Z AUTO 14016KT 8SM CLR 27/24 A3004 RMK A01
KSCF 211655Z AUTO 14017KT 7SM CLR 27/24 A3004 RMK A01
KSCF 211635Z AUTO 14017KT 8SM CLR 27/24 A3004 RMK A01
KSCF 211615Z AUTO 13018KT 8SM CLR 26/24 A3004 RMK A01
KSCF 211555Z AUTO 14019KT 9SM CLR 26/24 A3003 RMK A01
KSCF 211535Z AUTO 14018KT 9SM CLR 26/24 A3003 RMK A01
KSCF 211515Z AUTO 13019KT 10SM CLR 26/23 A3005 RMK A01
KSCF 211455Z AUTO 13018KT 9SM CLR 26/23 A3005 RMK A01
KSCF 211435Z AUTO 14017G22KT 8SM FEW100 26/23 A3005 RMK A01
KSCF 211415Z AUTO 13015KT 7SM FEW100 26/24 A3005 RMK A01
KSCF 211355Z AUTO 13016KT 8SM CLR 26/23 A3004 RMK A01
KSCF 211335Z AUTO 13018KT 7SM CLR 25/23 A3003 RMK A01
KSCF 211315Z AUTO 14020KT 8SM CLR 26/23 A3002 RMK A01
KSCF 211255Z AUTO 14015KT 7SM SCT065 26/23 A3002 RMK A01
KSCF 211235Z AUTO 13015KT 9SM FEW021 FEW040 BKN060 25/23 A3002 RMK A01
KSCF 211215Z AUTO 14015KT 8SM FEW023 FEW040 OVC060 26/24 A3002 RMK A01
KSCF 211155Z AUTO 13012KT 8SM SCT050 OVC055 26/24 A3002 RMK A01
KSCF 211135Z AUTO 13015KT 9SM OVC049 26/23 A3001 RMK A01
KSCF 211115Z AUTO 14012KT 7SM OVC047 26/24 A3001 RMK A01
KSCF 211055Z AUTO 14013KT 7SM OVC044 26/24 A3000 RMK A01
KSCF 211035Z AUTO 14013KT 7SM SCT042 BKN048 OVC060 26/24 A3000 RMK A01
KSCF 211015Z AUTO 14012KT 7SM BKN055 BKN100 26/24 A3000 RMK A01
KSCF 210955Z AUTO 14017KT 8SM FEW042 FEW048 SCT090 26/23 A2999 RMK A01
KSCF 210935Z AUTO 15018KT 9SM SCT042 SCT048 BKN090 26/23 A2999 RMK A01
KSCF 210915Z AUTO 15021KT 7SM FEW017 FEW021 SCT029 26/24 A2999 RMK A01
KSCF 210855Z AUTO 13020KT 8SM FEW028 FEW036 SCT090 26/23 A2998 RMK A01
KSCF 210835Z AUTO 15020KT 4SM BR FEW013 FEW022 BKN033 25/24 A2998 RMK A01
KSCF 210815Z AUTO 15025G30KT 2SM BR FEW013 SCT019 BKN033 25/23 A3000 RMK A01 VIS 1 1/4V4
KSCF 210755Z AUTO 11016G21KT 5SM BR CLR 26/24 A2999 RMK A01
KSCF 210735Z AUTO 11017KT 5SM BR CLR 26/24 A3000 RMK A01
KSCF 210715Z AUTO 12017KT 5SM HZ FEW024 26/24 A3001 RMK A01
KSCF 210655Z AUTO 12017KT 6SM HZ SCT024 SCT029 26/24 A3000 RMK A01
KSCF 210635Z AUTO 13016KT 8SM CLR 26/23 A3001 RMK A01
KSCF 210615Z AUTO 13017KT 6SM HZ CLR 26/24 A3002 RMK A01
KSCF 210555Z AUTO 13019KT 7SM CLR 26/23 A3001 RMK A01
KSCF 210535Z AUTO 12019KT 6SM BR SCT016 SCT026 SCT040 26/24 A3001 RMK A01
KSCF 210515Z AUTO 13020KT 6SM HZ SCT017 26/24 A3001 RMK A01
KSCF 210455Z AUTO 12021KT 6SM HZ CLR 26/24 A3001 RMK A01
KSCF 210435Z AUTO 12021G26KT 6SM HZ CLR 26/24 A3001 RMK A01
KSCF 210415Z AUTO 12022G27KT 7SM CLR 26/24 A3001 RMK A01
KSCF 210355Z AUTO 12025KT 7SM CLR 26/23 A3002 RMK A01
KSCF 210335Z AUTO 12022KT 6SM HZ FEW018 26/24 A3002 RMK A01
KSCF 210315Z AUTO 12020KT 6SM HZ SCT018 26/24 A3002 RMK A01
KSCF 210255Z AUTO 12020KT 6SM BR CLR 26/24 A3003 RMK A01
KSCF 210235Z AUTO 11022KT 5SM BR FEW018 FEW026 FEW033 26/24 A3002 RMK A01
KSCF 210215Z AUTO 10015KT 5SM BR CLR 26/24 A3003 RMK A01
KSCF 210155Z AUTO 10015KT 6SM BR CLR 26/24 A3004 RMK A01
KSCF 210135Z AUTO 10015KT 6SM BR CLR 26/24 A3005 RMK A01
KSCF 210115Z AUTO 09013KT 6SM BR FEW019 FEW024 FEW030 26/24 A3004 RMK A01
KSCF 210055Z AUTO 09013KT 6SM HZ FEW021 FEW026 26/23 A3004 RMK A01
KSCF 210035Z AUTO 09014KT 8SM FEW021 FEW028 SCT035 26/23 A3004 RMK A01
KSCF 210015Z AUTO 10014KT 9SM SCT024 BKN032 26/22 A3003 RMK A01
KSCF 202355Z AUTO 10011KT 9SM BKN025 BKN031 BKN037 26/22 A3004 RMK A01
KSCF 202335Z AUTO 10012KT 10SM SCT026 BKN033 BKN038 26/21 A3004 RMK A01
KSCF 202315Z AUTO 10016KT 9SM BKN026 BKN035 26/21 A3003 RMK A01
KSCF 202245Z AUTO 10016KT 10SM CLR 26/21 A3002 RMK A01
KSCF 202235Z AUTO 10016KT 9SM CLR 26/21 A3002 RMK A01
KSCF 202215Z AUTO 09018KT 9SM CLR 25/21 A3002 RMK A01
KSCF 202155Z AUTO 10018KT 9SM CLR 25/21 A3001 RMK A01
KSCF 202135Z AUTO 10018KT 10SM CLR 25/21 A3002 RMK A01
KSCF 202115Z AUTO 10015KT 9SM CLR 25/21 A3002 RMK A01
KSCF 202055Z AUTO 10017KT 9SM CLR 25/22 A3003 RMK A01
KSCF 202035Z AUTO 10015KT 9SM CLR 25/22 A3004 RMK A01
KSCF 202015Z AUTO 10017KT 9SM CLR 25/22 A3004 RMK A01
KSCF 201955Z AUTO 09017KT 8SM CLR 25/22 A3004 RMK A01